createdAt,value
2023-01-31T00:00:29.218Z,14.07
2023-01-31T00:03:36.481Z,14.27
2023-01-31T00:06:51.364Z,14.34
2023-01-31T00:09:58.184Z,13.32
2023-01-31T00:13:14.756Z,12.32
2023-01-31T00:16:24.408Z,13.24
2023-01-31T00:19:30.306Z,12.93
2023-01-31T00:22:37.267Z,12.92
2023-01-31T00:25:43.111Z,12.54
2023-01-31T00:28:57.824Z,12.97
2023-01-31T00:32:04.515Z,12.81
2023-01-31T00:35:12.384Z,12.27
2023-01-31T00:38:18.217Z,11.37
2023-01-31T00:41:29.263Z,11.34
2023-01-31T00:44:37.901Z,11.13
2023-01-31T00:47:44.594Z,11.09
2023-01-31T00:50:50.683Z,11.23
2023-01-31T00:53:58.490Z,11.71
2023-01-31T00:57:04.449Z,11.46
2023-01-31T01:00:32.651Z,10.58
2023-01-31T01:03:46.805Z,9.63
2023-01-31T01:06:53.679Z,9.17
2023-01-31T01:10:00.063Z,10.12
2023-01-31T01:13:24.138Z,10.49
2023-01-31T01:16:39.857Z,10.09
2023-01-31T01:19:46.707Z,8.97
2023-01-31T01:22:52.775Z,9.65
2023-01-31T01:25:59.366Z,10.72
2023-01-31T01:29:08.022Z,11.93
2023-01-31T01:32:17.391Z,10.98
2023-01-31T01:35:23.252Z,8.71
2023-01-31T01:38:30.374Z,7.66
2023-01-31T01:41:37.098Z,7.82
2023-01-31T01:44:53.603Z,7.71
2023-01-31T01:48:11.513Z,8.83
2023-01-31T01:51:22.268Z,10.44
2023-01-31T01:54:38.967Z,9.54
2023-01-31T01:57:53.365Z,8.51
2023-01-31T02:00:59.817Z,9.17
2023-01-31T02:04:17.574Z,6.62
2023-01-31T02:07:23.920Z,7.22
2023-01-31T02:10:40.014Z,5.80
2023-01-31T02:13:50.298Z,7.08
2023-01-31T02:16:56.903Z,5.95
2023-01-31T02:20:38.385Z,5.99
2023-01-31T02:24:28.548Z,6.40
2023-01-31T02:28:40.349Z,6.93
2023-01-31T02:32:40.721Z,7.82
2023-01-31T02:36:07.598Z,8.04
2023-01-31T02:39:32.445Z,5.42
2023-01-31T02:42:52.199Z,5.00
2023-01-31T02:46:17.702Z,5.66
2023-01-31T02:49:41.344Z,5.81
2023-01-31T02:53:03.128Z,8.77
2023-01-31T02:56:20.372Z,12.27
2023-01-31T02:59:32.203Z,11.07
2023-01-31T03:02:38.123Z,9.91
2023-01-31T03:05:47.430Z,11.04
2023-01-31T03:09:02.627Z,10.70
2023-01-31T03:12:39.110Z,9.20
2023-01-31T03:16:15.745Z,8.15
2023-01-31T03:19:31.128Z,8.95
2023-01-31T03:22:46.176Z,12.04
2023-01-31T03:25:54.529Z,14.42
2023-01-31T03:29:05.880Z,10.26
2023-01-31T03:32:23.581Z,6.79
2023-01-31T03:35:38.404Z,4.62
2023-01-31T03:39:03.351Z,4.18
2023-01-31T03:42:18.586Z,4.30
2023-01-31T03:45:37.842Z,4.35
2023-01-31T03:48:52.648Z,3.53
2023-01-31T03:52:11.507Z,3.90
2023-01-31T03:55:31.408Z,4.12
2023-01-31T03:58:48.803Z,4.36
2023-01-31T04:02:08.887Z,4.34
2023-01-31T04:05:22.175Z,4.84
2023-01-31T04:08:34.445Z,4.90
2023-01-31T04:11:53.542Z,5.42
2023-01-31T04:15:03.428Z,7.07
2023-01-31T04:18:10.081Z,9.87
2023-01-31T04:21:17.639Z,11.21
2023-01-31T04:24:24.346Z,12.30
2023-01-31T04:27:33.320Z,11.48
2023-01-31T04:30:41.167Z,9.86
2023-01-31T04:33:47.411Z,11.78
2023-01-31T04:36:58.020Z,13.76
2023-01-31T04:40:03.814Z,10.07
2023-01-31T04:43:21.141Z,10.57
2023-01-31T04:46:26.988Z,8.80
2023-01-31T04:49:33.685Z,8.81
2023-01-31T04:52:39.465Z,10.06
2023-01-31T04:55:46.092Z,10.53
2023-01-31T04:58:54.458Z,8.43
2023-01-31T05:02:01.112Z,9.95
2023-01-31T05:05:08.285Z,8.54
2023-01-31T05:08:14.901Z,9.61
2023-01-31T05:11:21.819Z,11.35
2023-01-31T05:14:31.477Z,9.26
2023-01-31T05:17:37.525Z,9.13
2023-01-31T05:20:44.418Z,10.36
2023-01-31T05:23:50.368Z,10.07
2023-01-31T05:26:58.838Z,7.77
2023-01-31T05:30:10.159Z,6.16
2023-01-31T05:33:17.159Z,5.29
2023-01-31T05:36:22.888Z,4.96
2023-01-31T05:39:31.256Z,7.81
2023-01-31T05:42:37.251Z,9.72
2023-01-31T05:45:46.773Z,10.85
2023-01-31T05:48:52.558Z,14.76
2023-01-31T05:52:02.371Z,16.60
2023-01-31T05:55:18.617Z,12.51
2023-01-31T05:58:25.872Z,15.59
2023-01-31T06:01:40.831Z,12.96
2023-01-31T06:04:47.639Z,9.96
2023-01-31T06:07:53.500Z,8.54
2023-01-31T06:11:00.057Z,7.08
2023-01-31T06:14:06.843Z,6.88
2023-01-31T06:17:19.054Z,6.81
2023-01-31T06:20:24.818Z,7.51
2023-01-31T06:23:31.998Z,10.57
2023-01-31T06:26:37.905Z,10.79
2023-01-31T06:29:44.584Z,12.07
2023-01-31T06:32:53.123Z,12.13
2023-01-31T06:36:03.029Z,11.32
2023-01-31T06:39:09.281Z,15.06
2023-01-31T06:42:15.867Z,9.35
2023-01-31T06:45:21.959Z,7.77
2023-01-31T06:48:31.666Z,9.63
2023-01-31T06:51:37.537Z,10.36
2023-01-31T06:54:44.158Z,7.10
2023-01-31T06:57:51.756Z,7.64
2023-01-31T07:00:58.971Z,9.12
2023-01-31T07:04:07.457Z,11.78
2023-01-31T07:07:14.049Z,17.51
2023-01-31T07:10:20.918Z,35.24
2023-01-31T07:13:28.683Z,36.41
2023-01-31T07:16:34.923Z,15.51
2023-01-31T07:19:45.590Z,17.69
2023-01-31T07:22:58.602Z,19.37
2023-01-31T07:26:08.105Z,22.28
2023-01-31T07:29:15.292Z,33.14
2023-01-31T07:32:25.043Z,32.24
2023-01-31T07:35:34.108Z,12.18
2023-01-31T07:38:40.715Z,18.39
2023-01-31T07:41:46.732Z,10.13
2023-01-31T07:44:53.694Z,13.35
2023-01-31T07:48:01.915Z,7.22
2023-01-31T07:51:11.929Z,9.17
2023-01-31T07:54:18.843Z,18.27
2023-01-31T07:57:29.750Z,19.67
2023-01-31T08:00:48.401Z,18.47
2023-01-31T08:03:55.736Z,9.85
2023-01-31T08:07:06.375Z,12.58
2023-01-31T08:10:17.497Z,17.29
2023-01-31T08:13:23.277Z,10.58
2023-01-31T08:16:32.149Z,10.55
2023-01-31T08:19:48.270Z,10.45
2023-01-31T08:23:00.082Z,16.94
2023-01-31T08:26:09.997Z,12.07
2023-01-31T08:29:16.718Z,17.81
2023-01-31T08:32:22.555Z,18.70
2023-01-31T08:35:30.408Z,14.29
2023-01-31T08:38:42.997Z,9.83
2023-01-31T08:41:49.673Z,10.90
2023-01-31T08:44:56.454Z,10.31
2023-01-31T08:48:04.076Z,10.38
2023-01-31T08:51:13.086Z,11.14
2023-01-31T08:54:22.257Z,11.71
2023-01-31T08:57:28.203Z,9.96
2023-01-31T09:00:35.886Z,11.17
2023-01-31T09:03:44.732Z,14.13
2023-01-31T09:06:52.083Z,11.77
2023-01-31T09:10:00.439Z,8.45
2023-01-31T09:13:10.647Z,8.22
2023-01-31T09:16:18.157Z,9.62
2023-01-31T09:19:25.576Z,13.45
2023-01-31T09:22:36.952Z,8.95
2023-01-31T09:25:47.914Z,8.92
2023-01-31T09:28:54.094Z,9.16
2023-01-31T09:32:00.973Z,9.76
2023-01-31T09:35:14.119Z,9.21
2023-01-31T09:38:20.936Z,13.12
2023-01-31T09:41:39.137Z,10.54
2023-01-31T09:44:59.716Z,8.81
2023-01-31T09:48:10.108Z,7.86
2023-01-31T09:51:20.013Z,8.86
2023-01-31T09:54:40.674Z,13.86
2023-01-31T09:58:08.107Z,12.83
2023-01-31T10:01:26.577Z,12.97
2023-01-31T10:05:07.795Z,15.92
2023-01-31T10:08:36.566Z,9.65
2023-01-31T10:11:52.202Z,9.81
2023-01-31T10:15:07.183Z,14.32
2023-01-31T10:18:26.122Z,8.35
2023-01-31T10:21:42.003Z,7.97
2023-01-31T10:25:00.012Z,9.75
2023-01-31T10:28:37.210Z,9.55
2023-01-31T10:31:54.574Z,9.15
2023-01-31T10:35:13.055Z,6.57
2023-01-31T10:38:31.407Z,8.76
2023-01-31T10:42:08.256Z,11.18
2023-01-31T10:45:22.494Z,9.71
2023-01-31T10:48:33.963Z,18.13
2023-01-31T10:52:06.907Z,25.37
2023-01-31T10:55:55.354Z,10.11
2023-01-31T10:59:08.034Z,11.01
2023-01-31T11:02:25.529Z,13.02
2023-01-31T11:05:52.285Z,8.97
2023-01-31T11:09:02.690Z,7.46
2023-01-31T11:12:11.697Z,13.94
2023-01-31T11:15:26.267Z,13.59
2023-01-31T11:18:47.911Z,8.49
2023-01-31T11:22:04.916Z,10.75
2023-01-31T11:25:25.472Z,11.36
2023-01-31T11:28:40.282Z,9.32
2023-01-31T11:31:50.887Z,9.63
2023-01-31T11:35:06.607Z,7.93
2023-01-31T11:38:27.969Z,18.73
2023-01-31T11:41:38.216Z,27.71
2023-01-31T11:44:59.930Z,27.76
2023-01-31T11:48:19.643Z,13.98
2023-01-31T11:51:34.232Z,13.69
2023-01-31T11:54:52.381Z,15.56
2023-01-31T11:58:04.845Z,21.50
2023-01-31T12:01:20.982Z,29.24
2023-01-31T12:04:38.116Z,27.31
2023-01-31T12:07:58.805Z,25.46
2023-01-31T12:11:32.153Z,25.24
2023-01-31T12:14:45.028Z,14.63
2023-01-31T12:17:53.997Z,12.28
2023-01-31T12:21:17.966Z,8.14
2023-01-31T12:24:43.797Z,6.74
2023-01-31T12:28:19.558Z,8.21
2023-01-31T12:31:52.795Z,11.14
2023-01-31T12:35:35.593Z,11.21
2023-01-31T12:39:02.153Z,8.48
2023-01-31T12:42:36.035Z,9.60
2023-01-31T12:46:09.918Z,11.26
2023-01-31T12:49:52.245Z,13.87
2023-01-31T12:53:41.296Z,11.60
2023-01-31T12:57:07.828Z,13.34
2023-01-31T13:00:40.364Z,15.04
2023-01-31T13:04:19.823Z,18.10
2023-01-31T13:07:41.762Z,17.06
2023-01-31T13:10:56.099Z,10.33
2023-01-31T13:14:08.934Z,9.04
2023-01-31T13:17:21.335Z,9.94
2023-01-31T13:20:43.011Z,22.43
2023-01-31T13:23:57.027Z,37.83
2023-01-31T13:27:14.655Z,25.68
2023-01-31T13:30:34.209Z,18.94
2023-01-31T13:33:54.014Z,13.75
2023-01-31T13:37:12.494Z,17.79
2023-01-31T13:40:25.608Z,14.60
2023-01-31T13:43:31.440Z,15.61
2023-01-31T13:46:53.941Z,24.28
2023-01-31T13:50:07.543Z,20.39
2023-01-31T13:53:29.531Z,34.41
2023-01-31T13:56:41.521Z,30.42
2023-01-31T13:59:59.441Z,29.83
2023-01-31T14:03:08.863Z,25.72
2023-01-31T14:06:15.618Z,18.90
2023-01-31T14:09:31.097Z,18.24
2023-01-31T14:12:41.224Z,16.69
2023-01-31T14:15:53.680Z,19.95
2023-01-31T14:19:00.570Z,18.13
2023-01-31T14:22:19.404Z,18.57
2023-01-31T14:25:45.732Z,18.06
2023-01-31T14:28:51.709Z,20.43
2023-01-31T14:32:02.255Z,20.78
2023-01-31T14:35:49.308Z,25.67
2023-01-31T14:39:54.558Z,22.70
2023-01-31T14:43:39.048Z,17.62
2023-01-31T14:47:17.201Z,22.12
2023-01-31T14:50:50.215Z,18.48
2023-01-31T14:54:38.957Z,14.91
2023-01-31T14:57:50.877Z,18.33
2023-01-31T15:01:04.348Z,18.85
2023-01-31T15:04:10.352Z,16.81
2023-01-31T15:07:20.539Z,22.08
2023-01-31T15:10:58.475Z,26.83
2023-01-31T15:14:34.366Z,39.86
2023-01-31T15:17:58.084Z,43.23
2023-01-31T15:21:18.387Z,45.79
2023-01-31T15:24:35.660Z,33.60
2023-01-31T15:27:47.718Z,45.08
2023-01-31T15:30:57.783Z,36.22
2023-01-31T15:34:23.041Z,41.79
2023-01-31T15:37:37.268Z,54.59
2023-01-31T15:40:44.035Z,41.30
2023-01-31T15:43:51.912Z,43.57
2023-01-31T15:47:03.789Z,41.29
2023-01-31T15:50:23.289Z,34.80
2023-01-31T15:53:33.242Z,31.51
2023-01-31T15:56:46.770Z,23.65
2023-01-31T15:59:53.816Z,25.83
2023-01-31T16:03:07.023Z,26.55
2023-01-31T16:06:29.003Z,26.58
2023-01-31T16:09:39.191Z,22.09
2023-01-31T16:12:51.986Z,23.13
2023-01-31T16:15:58.710Z,22.75
2023-01-31T16:19:10.565Z,27.60
2023-01-31T16:22:32.408Z,30.98
2023-01-31T16:25:40.224Z,38.18
2023-01-31T16:28:53.915Z,41.75
2023-01-31T16:32:00.955Z,51.74
2023-01-31T16:35:11.628Z,53.00
2023-01-31T16:38:29.975Z,54.02
2023-01-31T16:41:50.794Z,44.74
2023-01-31T16:44:57.410Z,39.84
2023-01-31T16:48:34.389Z,41.99
2023-01-31T16:51:49.552Z,44.98
2023-01-31T16:55:08.438Z,39.13
2023-01-31T16:58:53.114Z,39.65
2023-01-31T17:02:07.192Z,41.03
2023-01-31T17:05:26.318Z,41.85
2023-01-31T17:08:32.441Z,37.91
2023-01-31T17:11:43.959Z,36.12
2023-01-31T17:14:50.224Z,37.57
2023-01-31T17:17:58.894Z,35.54
2023-01-31T17:21:04.682Z,41.60
2023-01-31T17:24:17.981Z,46.31
2023-01-31T17:27:26.499Z,44.72
2023-01-31T17:30:33.812Z,39.79
2023-01-31T17:33:39.620Z,40.05
2023-01-31T17:36:49.373Z,41.03
2023-01-31T17:39:55.137Z,41.44
2023-01-31T17:43:07.353Z,45.04
2023-01-31T17:46:19.317Z,38.38
2023-01-31T17:49:26.412Z,39.19
2023-01-31T17:52:32.271Z,42.10
2023-01-31T17:55:45.754Z,38.30
2023-01-31T17:58:54.585Z,62.91
2023-01-31T18:02:03.126Z,73.76
2023-01-31T18:05:09.917Z,47.12
2023-01-31T18:08:17.797Z,43.79
2023-01-31T18:11:26.017Z,39.24
2023-01-31T18:14:39.007Z,37.95
2023-01-31T18:17:45.670Z,36.47
2023-01-31T18:20:52.317Z,37.10
2023-01-31T18:24:08.419Z,34.52
2023-01-31T18:27:33.565Z,34.19
2023-01-31T18:30:45.469Z,33.35
2023-01-31T18:33:52.270Z,30.77
2023-01-31T18:36:58.239Z,28.23
2023-01-31T18:40:19.490Z,33.18
2023-01-31T18:43:26.734Z,30.36
2023-01-31T18:46:35.958Z,36.54
2023-01-31T18:49:45.923Z,32.40
2023-01-31T18:52:52.534Z,38.71
2023-01-31T18:56:05.694Z,38.26
2023-01-31T18:59:12.530Z,41.67
2023-01-31T19:02:21.112Z,39.72
2023-01-31T19:05:28.612Z,37.92
2023-01-31T19:08:35.396Z,36.99
2023-01-31T19:11:43.700Z,38.34
2023-01-31T19:14:49.676Z,35.71
2023-01-31T19:17:58.888Z,37.45
2023-01-31T19:21:05.034Z,39.94
2023-01-31T19:24:17.172Z,37.34
2023-01-31T19:27:23.421Z,32.57
2023-01-31T19:30:30.113Z,28.13
2023-01-31T19:33:39.401Z,26.11
2023-01-31T19:36:50.370Z,26.38
2023-01-31T19:39:56.240Z,26.77
2023-01-31T19:43:05.018Z,24.90
2023-01-31T19:46:13.275Z,23.28
2023-01-31T19:49:23.378Z,22.62
2023-01-31T19:52:36.538Z,23.75
2023-01-31T19:55:43.214Z,23.28
2023-01-31T19:59:00.749Z,33.34
2023-01-31T20:02:07.378Z,26.97
2023-01-31T20:05:19.177Z,24.75
2023-01-31T20:08:29.152Z,26.14
2023-01-31T20:11:36.905Z,26.49
2023-01-31T20:14:43.639Z,26.75
2023-01-31T20:17:49.430Z,28.80
2023-01-31T20:20:59.110Z,27.50
2023-01-31T20:24:05.215Z,22.92
2023-01-31T20:27:11.823Z,23.40
2023-01-31T20:30:20.175Z,20.93
2023-01-31T20:33:26.930Z,22.01
2023-01-31T20:36:35.366Z,20.65
2023-01-31T20:39:44.477Z,30.16
2023-01-31T20:42:50.570Z,37.78
2023-01-31T20:46:06.568Z,34.83
2023-01-31T20:49:12.571Z,21.34
2023-01-31T20:52:24.462Z,21.79
2023-01-31T20:55:34.317Z,22.27
2023-01-31T20:58:44.084Z,31.42
2023-01-31T21:01:50.066Z,43.48
2023-01-31T21:05:12.097Z,33.38
2023-01-31T21:08:20.760Z,30.06
2023-01-31T21:11:27.854Z,21.48
2023-01-31T21:14:33.634Z,19.30
2023-01-31T21:17:40.833Z,19.38
2023-01-31T21:20:49.349Z,20.57
2023-01-31T21:24:08.990Z,20.57
2023-01-31T21:27:17.364Z,21.59
2023-01-31T21:30:36.352Z,21.05
2023-01-31T21:33:42.304Z,30.32
2023-01-31T21:36:49.060Z,39.86
2023-01-31T21:39:57.847Z,23.44
2023-01-31T21:43:04.397Z,21.87
2023-01-31T21:46:12.501Z,29.61
2023-01-31T21:49:19.529Z,39.56
2023-01-31T21:52:25.361Z,45.58
2023-01-31T21:55:34.500Z,28.72
2023-01-31T21:58:42.380Z,25.10
2023-01-31T22:01:51.790Z,26.92
2023-01-31T22:04:57.744Z,52.34
2023-01-31T22:08:04.374Z,51.51
2023-01-31T22:11:19.170Z,26.38
2023-01-31T22:14:26.246Z,24.92
2023-01-31T22:17:31.926Z,23.39
2023-01-31T22:20:40.672Z,22.60
2023-01-31T22:23:51.089Z,24.67
2023-01-31T22:27:00.357Z,25.84
2023-01-31T22:30:16.069Z,26.46
2023-01-31T22:33:22.863Z,29.24
2023-01-31T22:36:28.717Z,32.00
2023-01-31T22:39:35.269Z,32.01
2023-01-31T22:42:43.653Z,26.23
2023-01-31T22:45:53.758Z,24.66
2023-01-31T22:49:00.368Z,26.83
2023-01-31T22:52:07.388Z,25.19
2023-01-31T22:55:16.431Z,25.66
2023-01-31T22:58:25.904Z,25.46
2023-01-31T23:01:35.272Z,25.10
2023-01-31T23:04:42.165Z,27.34
2023-01-31T23:07:47.933Z,27.46
2023-01-31T23:10:54.539Z,29.39
2023-01-31T23:14:03.307Z,37.33
2023-01-31T23:17:28.376Z,39.32
2023-01-31T23:20:38.809Z,28.71
2023-01-31T23:23:46.813Z,22.74
2023-01-31T23:26:54.567Z,22.09
2023-01-31T23:30:03.795Z,21.70
2023-01-31T23:33:11.520Z,21.48
2023-01-31T23:36:18.145Z,20.45
2023-01-31T23:39:23.830Z,18.39
2023-01-31T23:42:30.964Z,18.54
2023-01-31T23:45:40.753Z,20.00
2023-01-31T23:48:47.413Z,18.62
2023-01-31T23:51:55.671Z,18.68
2023-01-31T23:55:08.475Z,17.57
2023-01-31T23:58:28.711Z,18.36
